createdAt,value
2022-09-25T00:01:10.259Z,23.63
2022-09-25T00:03:37.272Z,25.98
2022-09-25T00:06:06.727Z,27.70
2022-09-25T00:08:34.485Z,22.55
2022-09-25T00:11:06.696Z,29.90
2022-09-25T00:13:34.157Z,24.85
2022-09-25T00:16:03.113Z,23.42
2022-09-25T00:18:49.129Z,22.80
2022-09-25T00:21:17.279Z,26.38
2022-09-25T00:23:45.340Z,25.27
2022-09-25T00:26:14.152Z,25.60
2022-09-25T00:28:42.510Z,27.17
2022-09-25T00:31:11.650Z,27.60
2022-09-25T00:33:38.546Z,26.17
2022-09-25T00:36:08.210Z,28.80
2022-09-25T00:38:37.057Z,26.70
2022-09-25T00:41:06.335Z,28.17
2022-09-25T00:43:40.767Z,29.73
2022-09-25T00:48:37.389Z,24.30
2022-09-25T00:51:06.202Z,26.42
2022-09-25T00:53:40.964Z,26.50
2022-09-25T00:56:13.333Z,23.92
2022-09-25T00:58:41.177Z,21.42
2022-09-25T01:01:09.225Z,20.58
2022-09-25T01:03:37.193Z,22.08
2022-09-25T01:06:04.226Z,19.08
2022-09-25T01:08:32.009Z,17.60
2022-09-25T01:10:58.983Z,19.55
2022-09-25T01:13:26.830Z,18.38
2022-09-25T01:16:20.620Z,26.50
2022-09-25T01:19:20.566Z,31.08
2022-09-25T01:21:51.931Z,30.45
2022-09-25T01:24:37.619Z,30.05
2022-09-25T01:27:10.844Z,28.90
2022-09-25T01:29:44.366Z,26.38
2022-09-25T01:32:26.204Z,28.37
2022-09-25T01:35:04.666Z,23.35
2022-09-25T01:38:01.586Z,24.00
2022-09-25T01:41:12.544Z,24.65
2022-09-25T01:43:53.261Z,24.52
2022-09-25T01:46:24.256Z,25.55
2022-09-25T01:48:57.689Z,25.40
2022-09-25T01:51:36.192Z,24.10
2022-09-25T01:54:09.010Z,24.98
2022-09-25T01:56:44.260Z,25.70
2022-09-25T01:59:22.730Z,22.58
2022-09-25T02:01:51.385Z,24.67
2022-09-25T02:04:28.161Z,20.30
2022-09-25T02:06:58.917Z,26.23
2022-09-25T02:09:37.681Z,23.85
2022-09-25T02:12:29.144Z,21.58
2022-09-25T02:15:00.828Z,25.67
2022-09-25T02:17:56.459Z,23.55
2022-09-25T02:20:34.617Z,24.40
2022-09-25T02:23:53.865Z,24.25
2022-09-25T02:26:32.203Z,24.05
2022-09-25T02:28:59.808Z,27.83
2022-09-25T02:31:51.349Z,22.65
2022-09-25T02:34:18.534Z,27.05
2022-09-25T02:36:45.559Z,24.42
2022-09-25T02:39:16.125Z,25.15
2022-09-25T02:42:03.343Z,21.58
2022-09-25T02:44:45.241Z,23.15
2022-09-25T02:47:33.144Z,23.25
2022-09-25T02:50:09.337Z,21.70
2022-09-25T02:52:57.453Z,23.73
2022-09-25T02:55:45.234Z,21.77
2022-09-25T02:58:27.947Z,23.90
2022-09-25T03:00:57.482Z,20.95
2022-09-25T03:03:26.627Z,23.63
2022-09-25T03:05:56.811Z,23.25
2022-09-25T03:08:37.988Z,22.92
2022-09-25T03:11:08.681Z,25.40
2022-09-25T03:13:35.584Z,22.02
2022-09-25T03:16:09.169Z,23.10
2022-09-25T03:18:36.028Z,19.83
2022-09-25T03:21:04.291Z,24.55
2022-09-25T03:23:32.590Z,25.08
2022-09-25T03:25:59.509Z,22.88
2022-09-25T03:28:26.526Z,22.23
2022-09-25T03:31:02.178Z,23.90
2022-09-25T03:33:31.367Z,22.20
2022-09-25T03:36:02.143Z,21.77
2022-09-25T03:38:29.035Z,21.52
2022-09-25T03:40:55.941Z,20.48
2022-09-25T03:43:22.927Z,23.58
2022-09-25T03:45:49.815Z,17.83
2022-09-25T03:48:17.893Z,19.52
2022-09-25T03:50:46.239Z,23.48
2022-09-25T03:53:13.163Z,21.58
2022-09-25T03:55:40.010Z,18.27
2022-09-25T03:58:06.934Z,20.10
2022-09-25T04:00:33.851Z,23.23
2022-09-25T04:03:00.665Z,21.00
2022-09-25T04:05:27.433Z,20.17
2022-09-25T04:07:54.317Z,20.30
2022-09-25T04:10:21.195Z,19.70
2022-09-25T04:12:48.037Z,22.35
2022-09-25T04:15:15.200Z,21.40
2022-09-25T04:17:42.102Z,18.25
2022-09-25T04:20:09.963Z,19.35
2022-09-25T04:22:36.877Z,19.77
2022-09-25T04:25:03.898Z,20.20
2022-09-25T04:27:30.763Z,20.63
2022-09-25T04:29:57.644Z,19.05
2022-09-25T04:32:43.138Z,21.77
2022-09-25T04:35:09.970Z,19.67
2022-09-25T04:37:36.848Z,19.52
2022-09-25T04:40:04.191Z,18.52
2022-09-25T04:42:31.029Z,15.75
2022-09-25T04:44:58.445Z,18.25
2022-09-25T04:47:27.433Z,17.77
2022-09-25T04:49:54.265Z,19.05
2022-09-25T04:52:21.193Z,17.52
2022-09-25T04:54:48.347Z,18.63
2022-09-25T04:57:45.738Z,19.38
2022-09-25T05:00:08.180Z,19.48
2022-09-25T05:02:35.124Z,19.42
2022-09-25T05:05:02.235Z,20.05
2022-09-25T05:07:29.223Z,17.58
2022-09-25T05:09:56.117Z,16.40
2022-09-25T05:12:22.904Z,16.13
2022-09-25T05:14:50.052Z,17.25
2022-09-25T05:17:16.936Z,17.80
2022-09-25T05:19:43.778Z,17.60
2022-09-25T05:22:10.601Z,14.07
2022-09-25T05:24:38.657Z,15.35
2022-09-25T05:27:05.626Z,15.07
2022-09-25T05:29:32.503Z,18.98
2022-09-25T05:31:59.637Z,14.18
2022-09-25T05:34:26.905Z,14.30
2022-09-25T05:36:53.733Z,17.70
2022-09-25T05:39:20.552Z,13.38
2022-09-25T05:41:47.351Z,13.70
2022-09-25T05:44:15.012Z,14.25
2022-09-25T05:46:42.383Z,16.38
2022-09-25T05:49:09.504Z,18.13
2022-09-25T05:51:36.465Z,14.48
2022-09-25T05:54:03.477Z,19.23
2022-09-25T05:56:30.441Z,21.33
2022-09-25T05:58:58.617Z,18.52
2022-09-25T06:01:26.247Z,16.50
2022-09-25T06:03:53.246Z,17.50
2022-09-25T06:06:25.151Z,21.65
2022-09-25T06:08:54.683Z,16.48
2022-09-25T06:11:22.456Z,17.33
2022-09-25T06:13:54.276Z,18.23
2022-09-25T06:16:21.667Z,18.08
2022-09-25T06:18:48.824Z,18.00
2022-09-25T06:21:15.656Z,19.30
2022-09-25T06:23:45.015Z,23.08
2022-09-25T06:26:12.707Z,16.63
2022-09-25T06:28:40.092Z,16.73
2022-09-25T06:31:07.516Z,16.77
2022-09-25T06:33:34.410Z,18.02
2022-09-25T06:36:01.513Z,17.70
2022-09-25T06:38:28.776Z,19.83
2022-09-25T06:40:59.598Z,15.77
2022-09-25T06:43:27.927Z,18.45
2022-09-25T06:45:54.826Z,16.48
2022-09-25T06:48:22.334Z,15.18
2022-09-25T06:50:53.967Z,17.27
2022-09-25T06:53:22.613Z,16.15
2022-09-25T06:55:50.051Z,19.25
2022-09-25T06:58:20.515Z,16.02
2022-09-25T07:00:49.001Z,16.10
2022-09-25T07:03:34.615Z,16.80
2022-09-25T07:06:02.305Z,17.35
2022-09-25T07:08:29.450Z,17.27
2022-09-25T07:10:58.164Z,11.55
2022-09-25T07:13:27.732Z,12.60
2022-09-25T07:16:02.685Z,12.52
2022-09-25T07:18:30.370Z,14.68
2022-09-25T07:21:09.570Z,14.70
2022-09-25T07:23:37.937Z,16.08
2022-09-25T07:26:22.061Z,13.90
2022-09-25T07:29:00.345Z,15.45
2022-09-25T07:31:29.480Z,14.50
2022-09-25T07:33:57.608Z,11.13
2022-09-25T07:36:24.716Z,13.82
2022-09-25T07:38:52.907Z,14.63
2022-09-25T07:41:22.684Z,11.75
2022-09-25T07:46:44.794Z,12.00
2022-09-25T07:49:12.152Z,9.77
2022-09-25T07:51:39.264Z,11.32
2022-09-25T07:54:06.268Z,9.23
2022-09-25T07:56:34.699Z,12.65
2022-09-25T07:59:01.770Z,10.27
2022-09-25T08:01:28.849Z,11.18
2022-09-25T08:03:55.753Z,11.23
2022-09-25T08:06:22.646Z,11.98
2022-09-25T08:08:49.451Z,10.57
2022-09-25T08:11:17.791Z,12.65
2022-09-25T08:13:46.213Z,13.30
2022-09-25T08:16:15.903Z,10.50
2022-09-25T08:18:46.295Z,9.63
2022-09-25T08:21:15.400Z,11.23
2022-09-25T08:23:47.756Z,10.13
2022-09-25T08:26:15.942Z,10.07
2022-09-25T08:28:43.109Z,10.25
2022-09-25T08:31:10.250Z,10.60
2022-09-25T08:33:37.514Z,9.35
2022-09-25T08:36:05.983Z,8.10
2022-09-25T08:38:33.457Z,10.00
2022-09-25T08:41:04.844Z,8.68
2022-09-25T08:43:35.342Z,8.77
2022-09-25T08:46:29.148Z,15.50
2022-09-25T08:49:04.947Z,9.07
2022-09-25T08:51:38.513Z,8.43
2022-09-25T08:54:05.834Z,8.32
2022-09-25T08:56:35.219Z,10.88
2022-09-25T08:59:19.853Z,7.75
2022-09-25T09:01:53.436Z,7.90
2022-09-25T09:04:37.099Z,8.55
2022-09-25T09:07:26.825Z,9.53
2022-09-25T09:10:07.764Z,7.38
2022-09-25T09:12:49.271Z,7.47
2022-09-25T09:15:39.235Z,6.95
2022-09-25T09:18:21.466Z,6.82
2022-09-25T09:20:54.632Z,7.65
2022-09-25T09:23:24.392Z,8.52
2022-09-25T09:25:59.227Z,6.40
2022-09-25T09:28:37.849Z,8.40
2022-09-25T09:31:35.272Z,8.98
2022-09-25T09:34:02.011Z,7.05
2022-09-25T09:36:51.442Z,6.78
2022-09-25T09:39:32.187Z,7.57
2022-09-25T09:42:13.900Z,7.78
2022-09-25T09:45:13.133Z,9.13
2022-09-25T09:47:46.327Z,8.10
2022-09-25T09:50:26.994Z,10.73
2022-09-25T09:53:03.618Z,6.75
2022-09-25T09:55:36.299Z,7.70
2022-09-25T09:58:08.779Z,7.13
2022-09-25T10:04:27.324Z,8.13
2022-09-25T10:10:44.005Z,8.30
2022-09-25T10:13:20.389Z,9.48
2022-09-25T10:15:52.812Z,11.30
2022-09-25T10:18:22.939Z,10.25
2022-09-25T10:20:59.279Z,10.98
2022-09-25T10:23:47.111Z,11.07
2022-09-25T10:26:25.913Z,11.73
2022-09-25T10:28:53.536Z,10.45
2022-09-25T10:31:21.222Z,10.65
2022-09-25T10:34:14.152Z,11.25
2022-09-25T10:36:43.621Z,9.27
2022-09-25T10:39:46.335Z,10.35
2022-09-25T10:42:37.493Z,8.77
2022-09-25T10:45:22.410Z,9.75
2022-09-25T10:48:09.301Z,11.30
2022-09-25T10:50:39.540Z,10.23
2022-09-25T10:53:07.724Z,11.02
2022-09-25T10:55:37.460Z,10.85
2022-09-25T10:58:27.176Z,13.68
2022-09-25T11:00:58.991Z,10.05
2022-09-25T11:03:32.864Z,10.32
2022-09-25T11:06:05.693Z,12.20
2022-09-25T11:08:41.361Z,12.88
2022-09-25T11:11:09.806Z,11.13
2022-09-25T11:13:50.537Z,10.30
2022-09-25T11:16:17.536Z,9.48
2022-09-25T11:18:50.037Z,10.70
2022-09-25T11:21:19.957Z,11.07
2022-09-25T11:24:06.934Z,10.57
2022-09-25T11:26:43.325Z,9.05
2022-09-25T11:29:13.169Z,8.07
2022-09-25T11:32:02.176Z,6.68
2022-09-25T11:34:53.383Z,8.35
2022-09-25T11:37:27.451Z,10.43
2022-09-25T11:40:40.174Z,9.38
2022-09-25T11:43:11.145Z,8.27
2022-09-25T11:45:59.567Z,9.38
2022-09-25T11:48:51.000Z,9.45
2022-09-25T11:51:29.236Z,9.02
2022-09-25T11:54:36.535Z,7.40
2022-09-25T11:57:13.725Z,7.43
2022-09-25T11:59:58.007Z,7.72
2022-09-25T12:02:38.764Z,5.47
2022-09-25T12:05:08.383Z,9.98
2022-09-25T12:08:03.994Z,7.32
2022-09-25T12:10:48.961Z,6.30
2022-09-25T12:13:24.903Z,8.20
2022-09-25T12:16:13.239Z,8.20
2022-09-25T12:18:48.817Z,7.65
2022-09-25T12:21:41.890Z,7.40
2022-09-25T12:24:40.253Z,7.32
2022-09-25T12:27:21.179Z,7.22
2022-09-25T12:30:15.432Z,7.10
2022-09-25T12:33:15.117Z,7.20
2022-09-25T12:35:58.478Z,8.73
2022-09-25T12:38:38.301Z,7.78
2022-09-25T12:41:18.073Z,8.50
2022-09-25T12:43:52.139Z,7.38
2022-09-25T12:46:27.581Z,7.85
2022-09-25T12:49:14.689Z,6.13
2022-09-25T12:51:46.362Z,6.38
2022-09-25T12:54:23.290Z,7.43
2022-09-25T12:56:56.405Z,6.80
2022-09-25T12:59:26.291Z,6.82
2022-09-25T13:02:03.954Z,5.18
2022-09-25T13:05:02.466Z,7.10
2022-09-25T13:07:43.577Z,7.38
2022-09-25T13:10:39.399Z,9.65
2022-09-25T13:13:13.138Z,9.57
2022-09-25T13:15:42.918Z,9.48
2022-09-25T13:18:17.011Z,7.97
2022-09-25T13:20:49.054Z,10.60
2022-09-25T13:23:25.842Z,11.82
2022-09-25T13:26:08.605Z,9.55
2022-09-25T13:28:47.602Z,9.13
2022-09-25T13:31:23.768Z,9.77
2022-09-25T13:34:02.624Z,9.40
2022-09-25T13:36:45.439Z,10.50
2022-09-25T13:39:33.815Z,9.73
2022-09-25T13:42:13.484Z,8.23
2022-09-25T13:44:43.610Z,8.20
2022-09-25T13:47:25.311Z,7.78
2022-09-25T13:50:12.016Z,8.20
2022-09-25T13:52:38.795Z,8.70
2022-09-25T13:55:22.254Z,10.90
2022-09-25T13:57:55.988Z,11.25
2022-09-25T14:00:23.513Z,9.25
2022-09-25T14:02:50.785Z,9.40
2022-09-25T14:05:21.662Z,11.93
2022-09-25T14:07:52.739Z,7.93
2022-09-25T14:10:20.354Z,9.13
2022-09-25T14:12:49.801Z,10.63
2022-09-25T14:15:35.737Z,7.82
2022-09-25T14:18:08.412Z,8.65
2022-09-25T14:20:41.252Z,12.05
2022-09-25T14:23:24.719Z,8.63
2022-09-25T14:26:02.769Z,13.13
2022-09-25T14:28:33.065Z,12.35
2022-09-25T14:31:21.557Z,12.15
2022-09-25T14:34:16.303Z,14.13
2022-09-25T14:37:07.059Z,15.32
2022-09-25T14:40:25.269Z,12.88
2022-09-25T14:43:17.202Z,11.50
2022-09-25T14:45:53.219Z,8.95
2022-09-25T14:48:26.037Z,11.65
2022-09-25T14:50:57.580Z,11.88
2022-09-25T14:53:31.488Z,11.77
2022-09-25T14:56:01.822Z,13.02
2022-09-25T14:58:32.630Z,15.45
2022-09-25T15:01:13.931Z,12.27
2022-09-25T15:03:47.085Z,10.43
2022-09-25T15:06:24.887Z,10.60
2022-09-25T15:08:52.810Z,9.40
2022-09-25T15:11:21.741Z,10.85
2022-09-25T15:13:48.655Z,11.95
2022-09-25T15:16:43.529Z,10.00
2022-09-25T15:21:45.031Z,9.55
2022-09-25T15:24:19.895Z,9.18
2022-09-25T15:26:56.309Z,13.40
2022-09-25T15:29:24.363Z,10.23
2022-09-25T15:31:52.011Z,9.50
2022-09-25T15:34:25.544Z,9.25
2022-09-25T15:36:53.237Z,11.10
2022-09-25T15:39:26.111Z,8.57
2022-09-25T15:41:53.092Z,8.73
2022-09-25T15:44:26.625Z,9.25
2022-09-25T15:46:59.164Z,9.38
2022-09-25T15:49:43.493Z,10.15
2022-09-25T15:52:29.404Z,10.10
2022-09-25T15:55:06.544Z,9.73
2022-09-25T15:57:33.957Z,11.07
2022-09-25T16:00:26.075Z,14.65
2022-09-25T16:03:39.667Z,9.13
2022-09-25T16:06:07.230Z,9.63
2022-09-25T16:08:36.820Z,10.55
2022-09-25T16:11:17.832Z,10.02
2022-09-25T16:13:48.881Z,12.00
2022-09-25T16:16:36.204Z,11.25
2022-09-25T16:19:32.734Z,13.07
2022-09-25T16:22:13.223Z,13.68
2022-09-25T16:24:40.514Z,12.20
2022-09-25T16:27:07.629Z,12.10
2022-09-25T16:29:39.303Z,12.18
2022-09-25T16:32:13.761Z,11.70
2022-09-25T16:37:20.807Z,13.57
2022-09-25T16:40:19.555Z,13.90
2022-09-25T16:42:47.434Z,14.25
2022-09-25T16:45:22.874Z,16.38
2022-09-25T16:47:50.759Z,14.23
2022-09-25T16:50:19.235Z,15.88
2022-09-25T16:52:47.054Z,18.48
2022-09-25T16:55:26.316Z,16.17
2022-09-25T16:57:54.295Z,19.10
2022-09-25T17:00:28.337Z,14.93
2022-09-25T17:02:56.001Z,15.95
2022-09-25T17:05:29.071Z,16.88
2022-09-25T17:07:58.091Z,19.23
2022-09-25T17:10:28.730Z,16.20
2022-09-25T17:12:59.143Z,17.90
2022-09-25T17:15:36.470Z,20.05
2022-09-25T17:18:07.185Z,19.80
2022-09-25T17:20:35.644Z,17.50
2022-09-25T17:23:02.476Z,20.40
2022-09-25T17:25:41.565Z,19.60
2022-09-25T17:28:10.542Z,17.52
2022-09-25T17:30:38.967Z,17.90
2022-09-25T17:33:09.348Z,21.30
2022-09-25T17:35:45.223Z,21.60
2022-09-25T17:38:14.842Z,25.05
2022-09-25T17:40:44.582Z,20.45
2022-09-25T17:43:13.999Z,24.77
2022-09-25T17:46:04.090Z,23.27
2022-09-25T17:48:31.989Z,21.02
2022-09-25T17:51:16.414Z,22.90
2022-09-25T17:53:44.071Z,20.88
2022-09-25T17:56:12.174Z,20.55
2022-09-25T17:58:39.257Z,24.15
2022-09-25T18:01:21.890Z,19.48
2022-09-25T18:03:54.672Z,22.27
2022-09-25T18:06:22.509Z,24.02
2022-09-25T18:08:51.010Z,25.60
2022-09-25T18:11:18.199Z,20.67
2022-09-25T18:13:45.262Z,22.27
2022-09-25T18:16:21.102Z,23.55
2022-09-25T18:19:06.948Z,21.95
2022-09-25T18:21:52.624Z,22.65
2022-09-25T18:24:19.529Z,22.13
2022-09-25T18:26:46.781Z,22.95
2022-09-25T18:29:18.236Z,22.60
2022-09-25T18:31:46.627Z,28.80
2022-09-25T18:34:14.717Z,25.45
2022-09-25T18:36:41.848Z,26.00
2022-09-25T18:39:08.987Z,27.00
2022-09-25T18:41:39.691Z,31.55
2022-09-25T18:44:07.423Z,25.98
2022-09-25T18:46:38.304Z,27.23
2022-09-25T18:49:06.191Z,27.35
2022-09-25T18:51:34.420Z,29.50
2022-09-25T18:54:01.801Z,30.67
2022-09-25T18:56:28.687Z,26.58
2022-09-25T18:58:55.558Z,29.88
2022-09-25T19:05:10.592Z,26.20
2022-09-25T19:07:38.781Z,26.48
2022-09-25T19:10:09.543Z,29.20
2022-09-25T19:12:36.581Z,28.48
2022-09-25T19:15:04.859Z,26.77
2022-09-25T19:17:32.274Z,28.30
2022-09-25T19:19:59.170Z,30.98
2022-09-25T19:22:26.375Z,30.65
2022-09-25T19:24:54.508Z,27.77
2022-09-25T19:27:21.468Z,29.17
2022-09-25T19:33:30.955Z,30.25
2022-09-25T19:35:59.690Z,28.10
2022-09-25T19:38:27.401Z,28.33
2022-09-25T19:40:54.373Z,29.23
2022-09-25T19:43:21.451Z,26.50
2022-09-25T19:45:52.311Z,29.88
2022-09-25T19:48:19.856Z,27.15
2022-09-25T19:50:46.929Z,29.80
2022-09-25T19:53:14.325Z,32.63
2022-09-25T19:55:43.135Z,33.50
2022-09-25T19:58:11.092Z,28.60
2022-09-25T20:00:42.214Z,33.30
2022-09-25T20:03:10.056Z,31.77
2022-09-25T20:05:39.336Z,33.47
2022-09-25T20:08:07.696Z,35.17
2022-09-25T20:10:35.591Z,32.53
2022-09-25T20:13:02.895Z,32.80
2022-09-25T20:15:30.108Z,32.10
2022-09-25T20:17:57.283Z,37.38
2022-09-25T20:20:28.572Z,34.13
2022-09-25T20:22:56.472Z,30.83
2022-09-25T20:25:24.084Z,30.38
2022-09-25T20:27:52.434Z,32.00
2022-09-25T20:30:19.582Z,33.95
2022-09-25T20:32:46.910Z,33.22
2022-09-25T20:35:14.016Z,30.95
2022-09-25T20:37:40.892Z,35.70
2022-09-25T20:40:08.525Z,34.97
2022-09-25T20:42:35.330Z,35.28
2022-09-25T20:45:02.182Z,36.35
2022-09-25T20:47:33.590Z,37.55
2022-09-25T20:50:00.932Z,35.22
2022-09-25T20:52:28.585Z,35.40
2022-09-25T20:54:56.562Z,35.38
2022-09-25T20:57:23.388Z,36.50
2022-09-25T20:59:50.342Z,36.72
2022-09-25T21:02:17.354Z,36.00
2022-09-25T21:04:45.103Z,36.80
2022-09-25T21:07:16.615Z,60.00
2022-09-25T21:09:43.960Z,78.75
2022-09-25T21:12:10.798Z,81.38
2022-09-25T21:14:38.066Z,97.47
2022-09-25T21:17:05.016Z,73.88
2022-09-25T21:19:32.030Z,66.85
2022-09-25T21:21:59.076Z,61.15
2022-09-25T21:24:25.946Z,58.17
2022-09-25T21:26:52.788Z,46.90
2022-09-25T21:29:20.099Z,44.67
2022-09-25T21:31:50.342Z,44.05
2022-09-25T21:34:18.189Z,43.75
2022-09-25T21:36:45.790Z,39.97
2022-09-25T21:39:13.380Z,39.45
2022-09-25T21:41:40.841Z,37.80
2022-09-25T21:44:13.244Z,36.85
2022-09-25T21:46:40.903Z,42.58
2022-09-25T21:49:08.833Z,37.20
2022-09-25T21:51:45.738Z,38.15
2022-09-25T21:54:14.281Z,39.60
2022-09-25T21:56:41.530Z,38.00
2022-09-25T21:59:09.472Z,37.40
2022-09-25T22:01:38.708Z,35.40
2022-09-25T22:04:06.974Z,38.42
2022-09-25T22:06:37.166Z,37.63
2022-09-25T22:09:07.026Z,35.90
2022-09-25T22:11:34.353Z,36.75
2022-09-25T22:14:01.994Z,34.08
2022-09-25T22:16:34.995Z,33.15
2022-09-25T22:19:11.847Z,34.70
2022-09-25T22:21:39.495Z,30.85
2022-09-25T22:24:07.190Z,34.78
2022-09-25T22:26:36.807Z,36.25
2022-09-25T22:29:04.251Z,32.47
2022-09-25T22:31:32.951Z,30.85
2022-09-25T22:34:06.302Z,31.02
2022-09-25T22:36:36.414Z,29.02
2022-09-25T22:39:04.733Z,30.00
2022-09-25T22:41:32.302Z,30.25
2022-09-25T22:44:00.966Z,29.42
2022-09-25T22:46:28.313Z,26.83
2022-09-25T22:48:55.170Z,30.13
2022-09-25T22:51:24.852Z,28.05
2022-09-25T22:53:52.548Z,29.08
2022-09-25T22:56:30.471Z,28.33
2022-09-25T22:59:06.231Z,32.83
2022-09-25T23:01:46.681Z,37.67
2022-09-25T23:04:16.589Z,37.55
2022-09-25T23:06:43.888Z,37.47
2022-09-25T23:09:17.008Z,38.60
2022-09-25T23:11:44.809Z,36.28
2022-09-25T23:14:17.027Z,36.78
2022-09-25T23:16:45.284Z,36.35
2022-09-25T23:19:13.094Z,32.85
2022-09-25T23:21:40.450Z,33.35
2022-09-25T23:24:11.489Z,31.77
2022-09-25T23:26:38.508Z,33.72
2022-09-25T23:29:05.388Z,31.67
2022-09-25T23:31:33.809Z,34.13
2022-09-25T23:34:01.846Z,34.90
2022-09-25T23:36:29.637Z,31.77
2022-09-25T23:38:59.545Z,28.88
2022-09-25T23:41:35.998Z,30.13
2022-09-25T23:44:06.434Z,28.45
2022-09-25T23:46:36.557Z,28.85
2022-09-25T23:49:04.252Z,28.15
2022-09-25T23:51:31.074Z,28.42
2022-09-25T23:54:00.045Z,25.30
2022-09-25T23:56:29.198Z,25.25
2022-09-25T23:58:57.716Z,24.75
